createdAt,value
2017-09-03T00:00:51.962Z,99.99
2017-09-03T00:01:51.985Z,99.99
2017-09-03T00:02:52.008Z,99.99
2017-09-03T00:03:52.023Z,99.99
2017-09-03T00:04:52.031Z,99.99
2017-09-03T00:05:52.055Z,99.99
2017-09-03T00:06:52.093Z,99.99
2017-09-03T00:07:52.110Z,99.99
2017-09-03T00:08:52.124Z,99.99
2017-09-03T00:10:06.767Z,99.99
2017-09-03T00:12:52.227Z,99.99
2017-09-03T00:13:52.239Z,99.99
2017-09-03T00:14:52.270Z,99.99
2017-09-03T00:16:52.305Z,99.99
2017-09-03T00:17:52.329Z,99.99
2017-09-03T00:18:52.344Z,99.99
2017-09-03T00:19:52.368Z,99.99
2017-09-03T00:20:52.392Z,99.99
2017-09-03T00:21:52.460Z,99.99
2017-09-03T00:22:52.437Z,99.99
2017-09-03T00:23:52.458Z,99.99
2017-09-03T00:25:07.096Z,99.99
2017-09-03T00:25:52.196Z,99.99
2017-09-03T00:27:52.547Z,99.99
2017-09-03T00:28:52.559Z,99.99
2017-09-03T00:29:52.597Z,99.99
2017-09-03T00:30:52.620Z,99.99
2017-09-03T00:31:52.627Z,99.99
2017-09-03T00:32:52.651Z,99.99
2017-09-03T00:33:52.371Z,99.99
2017-09-03T00:34:52.695Z,99.99
2017-09-03T00:35:52.731Z,99.99
2017-09-03T00:36:52.750Z,99.99
2017-09-03T00:37:52.753Z,99.99
2017-09-03T00:39:52.496Z,99.99
2017-09-03T00:40:52.837Z,99.99
2017-09-03T00:41:52.850Z,99.99
2017-09-03T00:42:52.864Z,99.99
2017-09-03T00:43:52.888Z,99.99
2017-09-03T00:44:52.948Z,99.99
2017-09-03T00:45:52.630Z,99.99
2017-09-03T00:46:52.948Z,99.99
2017-09-03T00:48:52.996Z,99.99
2017-09-03T00:49:53.034Z,99.99
2017-09-03T00:50:53.045Z,99.99
2017-09-03T00:51:53.063Z,99.99
2017-09-03T00:52:53.087Z,99.99
2017-09-03T00:53:53.114Z,99.99
2017-09-03T00:54:52.823Z,99.99
2017-09-03T00:57:07.785Z,99.99
2017-09-03T00:57:53.198Z,99.99
2017-09-03T00:58:53.219Z,99.99
2017-09-03T00:59:53.239Z,99.99
2017-09-03T01:00:53.263Z,99.99
2017-09-03T01:01:53.295Z,99.99
2017-09-03T01:02:53.309Z,99.99
2017-09-03T01:03:53.335Z,99.99
2017-09-03T01:04:53.343Z,99.99
2017-09-03T01:05:53.379Z,99.99
2017-09-03T01:06:53.397Z,99.99
2017-09-03T01:07:53.416Z,99.99
2017-09-03T01:08:53.434Z,99.99
2017-09-03T01:09:53.455Z,99.99
2017-09-03T01:10:53.484Z,99.99
2017-09-03T01:11:53.190Z,99.99
2017-09-03T01:13:08.135Z,99.99
2017-09-03T01:13:53.222Z,99.99
2017-09-03T01:14:53.250Z,99.99
2017-09-03T01:15:53.272Z,99.99
2017-09-03T01:16:53.607Z,99.99
2017-09-03T01:17:53.632Z,99.99
2017-09-03T01:18:53.635Z,99.99
2017-09-03T01:19:53.668Z,99.99
2017-09-03T01:20:53.690Z,99.99
2017-09-03T01:21:53.722Z,99.99
2017-09-03T01:22:53.738Z,99.99
2017-09-03T01:23:53.761Z,99.99
2017-09-03T01:24:53.763Z,99.99
2017-09-03T01:25:53.800Z,99.99
2017-09-03T01:26:53.830Z,99.99
2017-09-03T01:27:53.846Z,99.99
2017-09-03T01:29:08.480Z,99.99
2017-09-03T01:29:53.883Z,99.99
2017-09-03T01:30:53.602Z,99.99
2017-09-03T01:31:53.930Z,99.99
2017-09-03T01:32:53.942Z,99.99
2017-09-03T01:33:53.975Z,99.99
2017-09-03T01:34:53.997Z,99.99
2017-09-03T01:35:54.020Z,99.99
2017-09-03T01:36:54.036Z,99.99
2017-09-03T01:37:54.062Z,99.99
2017-09-03T01:38:54.083Z,99.99
2017-09-03T01:39:54.105Z,99.99
2017-09-03T01:40:54.120Z,99.99
2017-09-03T01:41:54.150Z,99.99
2017-09-03T01:42:54.166Z,99.99
2017-09-03T01:43:54.191Z,99.99
2017-09-03T01:45:08.815Z,99.99
2017-09-03T01:45:54.225Z,99.99
2017-09-03T01:46:54.248Z,99.99
2017-09-03T01:47:54.268Z,99.99
2017-09-03T01:48:54.296Z,99.99
2017-09-03T01:49:54.309Z,99.99
2017-09-03T01:50:54.027Z,99.99
2017-09-03T01:51:54.367Z,99.99
2017-09-03T01:52:54.382Z,99.99
2017-09-03T01:53:54.406Z,99.99
2017-09-03T01:54:54.428Z,99.99
2017-09-03T01:55:54.448Z,99.99
2017-09-03T01:56:54.469Z,99.99
2017-09-03T01:57:54.490Z,99.99
2017-09-03T01:58:54.521Z,99.99
2017-09-03T02:00:09.141Z,99.99
2017-09-03T02:00:54.554Z,99.99
2017-09-03T02:01:54.570Z,99.99
2017-09-03T02:02:54.591Z,99.99
2017-09-03T02:03:54.609Z,99.99
2017-09-03T02:04:54.641Z,99.99
2017-09-03T02:05:54.669Z,99.99
2017-09-03T02:06:54.684Z,99.99
2017-09-03T02:07:54.705Z,99.99
2017-09-03T02:08:54.723Z,99.99
2017-09-03T02:09:54.744Z,99.99
2017-09-03T02:10:54.768Z,99.99
2017-09-03T02:11:54.790Z,99.99
2017-09-03T02:12:54.800Z,99.99
2017-09-03T02:13:54.833Z,99.99
2017-09-03T02:14:54.854Z,99.99
2017-09-03T02:15:54.871Z,99.99
2017-09-03T02:16:54.892Z,99.99
2017-09-03T02:17:54.916Z,99.99
2017-09-03T02:18:54.930Z,99.99
2017-09-03T02:19:54.958Z,99.99
2017-09-03T02:20:54.972Z,99.99
2017-09-03T02:21:55.041Z,99.99
2017-09-03T02:22:55.015Z,99.99
2017-09-03T02:23:55.031Z,99.99
2017-09-03T02:24:55.072Z,99.99
2017-09-03T02:25:55.085Z,99.99
2017-09-03T02:26:55.095Z,99.99
2017-09-03T02:27:55.123Z,99.99
2017-09-03T02:28:55.154Z,99.99
2017-09-03T02:29:55.179Z,99.99
2017-09-03T02:30:55.197Z,99.99
2017-09-03T02:32:09.823Z,99.99
2017-09-03T02:32:54.914Z,99.99
2017-09-03T02:33:55.255Z,99.99
2017-09-03T02:35:55.298Z,99.99
2017-09-03T02:36:55.004Z,99.99
2017-09-03T02:37:55.339Z,99.99
2017-09-03T02:38:55.350Z,99.99
2017-09-03T02:39:55.380Z,99.99
2017-09-03T02:40:55.394Z,99.99
2017-09-03T02:41:55.424Z,99.99
2017-09-03T02:42:55.451Z,99.99
2017-09-03T02:43:55.471Z,99.99
2017-09-03T02:45:55.518Z,99.99
2017-09-03T02:46:55.539Z,99.99
2017-09-03T02:48:10.163Z,99.99
2017-09-03T02:48:55.582Z,99.99
2017-09-03T02:49:55.591Z,99.99
2017-09-03T02:50:55.617Z,99.99
2017-09-03T02:51:55.632Z,99.99
2017-09-03T02:52:55.669Z,99.99
2017-09-03T02:53:55.681Z,99.99
2017-09-03T02:55:55.727Z,99.99
2017-09-03T02:56:55.738Z,99.99
2017-09-03T02:57:55.773Z,99.99
2017-09-03T02:58:55.788Z,99.99
2017-09-03T02:59:55.863Z,99.99
2017-09-03T03:00:55.829Z,99.99
2017-09-03T03:01:55.848Z,99.99
2017-09-03T03:02:55.868Z,99.99
2017-09-03T03:04:10.509Z,99.99
2017-09-03T03:04:55.915Z,99.99
2017-09-03T03:05:55.945Z,99.99
2017-09-03T03:06:55.953Z,99.99
2017-09-03T03:07:55.972Z,99.99
2017-09-03T03:08:56.003Z,99.99
2017-09-03T03:09:56.027Z,99.99
2017-09-03T03:10:56.036Z,99.99
2017-09-03T03:11:56.062Z,99.99
2017-09-03T03:12:56.084Z,99.99
2017-09-03T03:13:56.090Z,99.99
2017-09-03T03:14:56.126Z,99.99
2017-09-03T03:15:56.140Z,99.99
2017-09-03T03:16:56.170Z,99.99
2017-09-03T03:17:56.176Z,99.99
2017-09-03T03:18:56.204Z,99.99
2017-09-03T03:20:10.840Z,99.99
2017-09-03T03:20:56.258Z,99.99
2017-09-03T03:22:56.294Z,99.99
2017-09-03T03:23:56.313Z,99.99
2017-09-03T03:24:56.020Z,99.99
2017-09-03T03:25:56.363Z,99.99
2017-09-03T03:26:56.378Z,99.99
2017-09-03T03:27:56.401Z,99.99
2017-09-03T03:28:56.425Z,99.99
2017-09-03T03:29:56.453Z,99.99
2017-09-03T03:30:56.468Z,99.99
2017-09-03T03:31:56.493Z,99.99
2017-09-03T03:32:56.494Z,99.99
2017-09-03T03:33:56.530Z,99.99
2017-09-03T03:35:11.154Z,99.99
2017-09-03T03:35:56.573Z,99.99
2017-09-03T03:36:56.592Z,99.99
2017-09-03T03:37:56.604Z,99.99
2017-09-03T03:39:56.652Z,99.99
2017-09-03T03:40:56.680Z,99.99
2017-09-03T03:41:56.698Z,99.99
2017-09-03T03:42:56.725Z,99.99
2017-09-03T03:43:56.737Z,99.99
2017-09-03T03:44:56.769Z,99.99
2017-09-03T03:45:56.776Z,99.99
2017-09-03T03:46:56.803Z,99.99
2017-09-03T03:47:56.827Z,99.99
2017-09-03T03:48:56.835Z,99.99
2017-09-03T03:49:56.860Z,99.99
2017-09-03T03:50:56.883Z,99.99
2017-09-03T03:52:56.924Z,99.99
2017-09-03T03:53:56.947Z,99.99
2017-09-03T03:54:56.971Z,99.99
2017-09-03T03:55:56.984Z,99.99
2017-09-03T03:56:56.695Z,99.99
2017-09-03T03:57:57.041Z,99.99
2017-09-03T03:58:57.056Z,99.99
2017-09-03T03:59:57.078Z,99.99
2017-09-03T04:00:57.098Z,99.99
2017-09-03T04:01:57.123Z,99.99
2017-09-03T04:02:57.131Z,99.99
2017-09-03T04:03:56.849Z,99.99
2017-09-03T04:04:57.168Z,99.99
2017-09-03T04:05:57.195Z,99.99
2017-09-03T04:07:11.831Z,99.99
2017-09-03T04:07:57.242Z,99.99
2017-09-03T04:08:57.259Z,99.99
2017-09-03T04:09:57.286Z,99.99
2017-09-03T04:10:57.308Z,99.99
2017-09-03T04:11:57.009Z,99.99
2017-09-03T04:12:57.026Z,99.99
2017-09-03T04:13:57.363Z,99.99
2017-09-03T04:14:57.391Z,99.99
2017-09-03T04:15:57.407Z,99.99
2017-09-03T04:17:57.449Z,99.99
2017-09-03T04:18:57.481Z,99.99
2017-09-03T04:19:57.491Z,99.99
2017-09-03T04:20:57.519Z,99.99
2017-09-03T04:21:57.536Z,99.99
2017-09-03T04:23:12.215Z,99.99
2017-09-03T04:23:57.575Z,99.99
2017-09-03T04:24:57.606Z,99.99
2017-09-03T04:25:57.307Z,99.99
2017-09-03T04:26:57.330Z,99.99
2017-09-03T04:27:57.668Z,99.99
2017-09-03T04:28:57.673Z,99.99
2017-09-03T04:29:57.698Z,99.99
2017-09-03T04:30:57.727Z,99.99
2017-09-03T04:31:57.745Z,99.99
2017-09-03T04:32:57.764Z,99.99
2017-09-03T04:35:57.515Z,99.99
2017-09-03T04:36:57.851Z,99.99
2017-09-03T04:39:12.505Z,99.99
2017-09-03T04:39:57.916Z,99.99
2017-09-03T04:40:57.930Z,99.99
2017-09-03T04:41:57.643Z,99.99
2017-09-03T04:42:57.661Z,99.99
2017-09-03T04:43:57.685Z,99.99
2017-09-03T04:44:58.029Z,99.99
2017-09-03T04:45:57.720Z,99.99
2017-09-03T04:46:58.057Z,99.99
2017-09-03T04:47:58.070Z,99.99
2017-09-03T04:48:58.100Z,99.99
2017-09-03T04:49:57.808Z,99.99
2017-09-03T04:50:58.139Z,99.99
2017-09-03T04:51:58.162Z,99.99
2017-09-03T04:52:58.182Z,99.99
2017-09-03T04:53:57.891Z,99.99
2017-09-03T04:55:12.838Z,99.99
2017-09-03T04:55:58.245Z,99.99
2017-09-03T04:56:58.274Z,99.99
2017-09-03T04:57:58.302Z,99.99
2017-09-03T04:58:58.316Z,99.99
2017-09-03T04:59:58.331Z,99.99
2017-09-03T05:00:58.047Z,99.99
2017-09-03T05:01:58.069Z,99.99
2017-09-03T05:02:58.089Z,99.99
2017-09-03T05:03:58.418Z,99.99
2017-09-03T05:04:58.438Z,99.99
2017-09-03T05:05:58.469Z,99.99
2017-09-03T05:06:58.485Z,99.99
2017-09-03T05:07:58.510Z,99.99
2017-09-03T05:08:58.534Z,99.99
2017-09-03T05:10:13.159Z,99.99
2017-09-03T05:10:58.579Z,99.99
2017-09-03T05:11:58.587Z,99.99
2017-09-03T05:12:58.611Z,99.99
2017-09-03T05:13:58.634Z,99.99
2017-09-03T05:14:58.668Z,99.99
2017-09-03T05:15:58.684Z,99.99
2017-09-03T05:16:58.689Z,99.99
2017-09-03T05:17:58.723Z,99.99
2017-09-03T05:18:58.746Z,99.99
2017-09-03T05:19:58.771Z,99.99
2017-09-03T05:20:58.480Z,99.99
2017-09-03T05:21:58.810Z,99.99
2017-09-03T05:22:58.839Z,99.99
2017-09-03T05:23:58.849Z,99.99
2017-09-03T05:24:58.883Z,99.99
2017-09-03T05:25:58.907Z,99.99
2017-09-03T05:26:58.918Z,99.99
2017-09-03T05:27:58.938Z,99.99
2017-09-03T05:28:58.960Z,99.99
2017-09-03T05:29:58.988Z,99.99
2017-09-03T05:30:58.695Z,99.99
2017-09-03T05:31:59.037Z,99.99
2017-09-03T05:32:59.050Z,99.99
2017-09-03T05:33:59.083Z,99.99
2017-09-03T05:34:59.148Z,99.99
2017-09-03T05:35:59.111Z,99.99
2017-09-03T05:36:59.127Z,99.99
2017-09-03T05:37:59.165Z,99.99
2017-09-03T05:38:59.191Z,99.99
2017-09-03T05:40:59.232Z,99.99
2017-09-03T05:42:13.865Z,99.99
2017-09-03T05:42:59.277Z,99.99
2017-09-03T05:43:59.296Z,99.99
2017-09-03T05:44:59.013Z,99.99
2017-09-03T05:45:59.344Z,99.99
2017-09-03T05:46:59.369Z,99.99
2017-09-03T05:47:59.391Z,99.99
2017-09-03T05:48:59.410Z,99.99
2017-09-03T05:49:59.429Z,99.99
2017-09-03T05:50:59.453Z,99.99
2017-09-03T05:52:59.186Z,99.99
2017-09-03T05:53:59.512Z,99.99
2017-09-03T05:54:59.537Z,99.99
2017-09-03T05:55:59.565Z,99.99
2017-09-03T05:56:59.604Z,99.99
2017-09-03T05:58:14.222Z,99.99
2017-09-03T05:58:59.626Z,99.99
2017-09-03T05:59:59.655Z,99.99
2017-09-03T06:00:59.681Z,99.66
2017-09-03T06:01:59.705Z,99.57
2017-09-03T06:02:59.721Z,99.38
2017-09-03T06:03:59.749Z,99.38
2017-09-03T06:04:59.762Z,99.09
2017-09-03T06:05:59.792Z,98.8
2017-09-03T06:06:59.826Z,97.66
2017-09-03T06:08:59.875Z,96.47
2017-09-03T06:09:59.890Z,95.98
2017-09-03T06:10:59.914Z,94.89
2017-09-03T06:11:59.942Z,93.93
2017-09-03T06:12:59.966Z,92.73
2017-09-03T06:14:14.595Z,92.35
2017-09-03T06:15:00.014Z,91.25
2017-09-03T06:17:00.053Z,88.95
2017-09-03T06:18:00.084Z,88.9
2017-09-03T06:19:00.121Z,87.94
2017-09-03T06:20:00.136Z,87.46
2017-09-03T06:21:00.186Z,88.03
2017-09-03T06:22:00.186Z,88.13
2017-09-03T06:23:00.198Z,87.46
2017-09-03T06:24:00.239Z,86.98
2017-09-03T06:25:00.267Z,86.69
2017-09-03T06:26:00.293Z,85.83
2017-09-03T06:27:00.300Z,86.12
2017-09-03T06:28:00.339Z,86.5
2017-09-03T06:29:00.366Z,87.27
2017-09-03T06:30:15.003Z,88.09
2017-09-03T06:31:00.425Z,88.13
2017-09-03T06:32:00.447Z,87.99
2017-09-03T06:33:00.154Z,87.32
2017-09-03T06:34:00.522Z,87.17
2017-09-03T06:35:00.527Z,87.99
2017-09-03T06:36:00.531Z,88.47
2017-09-03T06:37:00.567Z,87.7
2017-09-03T06:38:00.589Z,88.47
2017-09-03T06:39:00.627Z,88.09
2017-09-03T06:40:00.640Z,88.03
2017-09-03T06:41:00.672Z,87.46
2017-09-03T06:42:00.708Z,87.7
2017-09-03T06:43:00.719Z,88.18
2017-09-03T06:45:15.383Z,87.8
2017-09-03T06:46:00.792Z,87.99
2017-09-03T06:47:00.819Z,87.08
2017-09-03T06:48:00.855Z,86.69
2017-09-03T06:49:00.870Z,86.69
2017-09-03T06:50:00.890Z,85.83
2017-09-03T06:51:00.925Z,85.88
2017-09-03T06:52:00.635Z,85.83
2017-09-03T06:53:00.960Z,87.17
2017-09-03T06:54:01.008Z,87.17
2017-09-03T06:55:01.029Z,86.88
2017-09-03T06:56:01.038Z,86.31
2017-09-03T06:57:01.076Z,85.83
2017-09-03T06:58:01.093Z,85.93
2017-09-03T06:59:01.123Z,85.93
2017-09-03T07:00:01.147Z,85.78
2017-09-03T07:01:01.176Z,85.83
2017-09-03T07:03:00.907Z,86.02
2017-09-03T07:04:00.934Z,86.64
2017-09-03T07:05:01.274Z,85.58
2017-09-03T07:06:01.310Z,86.16
2017-09-03T07:07:01.320Z,86.41
2017-09-03T07:08:01.357Z,86.21
2017-09-03T07:09:01.378Z,86.5
2017-09-03T07:10:01.401Z,86.5
2017-09-03T07:11:01.112Z,86.25
2017-09-03T07:12:01.451Z,84.91
2017-09-03T07:13:01.480Z,84.58
2017-09-03T07:14:01.497Z,84.09
2017-09-03T07:15:01.527Z,83.91
2017-09-03T07:16:01.557Z,83.71
2017-09-03T07:17:16.189Z,84.25
2017-09-03T07:18:01.612Z,84.63
2017-09-03T07:19:01.636Z,84
2017-09-03T07:20:01.656Z,83.61
2017-09-03T07:22:01.695Z,81.3
2017-09-03T07:24:01.753Z,78.4
2017-09-03T07:25:01.791Z,76.71
2017-09-03T07:26:01.819Z,76.52
2017-09-03T07:27:01.836Z,75.31
2017-09-03T07:28:01.862Z,73.51
2017-09-03T07:29:01.898Z,71.62
2017-09-03T07:30:01.934Z,71.18
2017-09-03T07:31:01.957Z,72.3
2017-09-03T07:32:01.989Z,70.31
2017-09-03T07:33:16.624Z,70.41
2017-09-03T07:34:02.044Z,69.45
2017-09-03T07:36:02.105Z,69.09
2017-09-03T07:38:02.157Z,69.93
2017-09-03T07:39:02.189Z,69.83
2017-09-03T07:40:02.216Z,70.12
2017-09-03T07:41:02.252Z,69.93
2017-09-03T07:42:02.336Z,69.48
2017-09-03T07:43:02.308Z,69.09
2017-09-03T07:44:02.339Z,70.76
2017-09-03T07:45:02.388Z,72.17
2017-09-03T07:46:02.402Z,71.34
2017-09-03T07:47:02.431Z,72.17
2017-09-03T07:48:02.515Z,72.74
2017-09-03T07:49:17.107Z,72.55
2017-09-03T07:50:02.517Z,73
2017-09-03T07:51:02.553Z,73.8
2017-09-03T07:52:02.589Z,73.32
2017-09-03T07:53:02.609Z,73.38
2017-09-03T07:54:02.645Z,73.96
2017-09-03T07:55:02.659Z,74.73
2017-09-03T07:56:02.713Z,73.67
2017-09-03T07:57:02.722Z,73.32
2017-09-03T07:58:02.767Z,73.13
2017-09-03T07:59:02.483Z,72.2
2017-09-03T08:00:02.807Z,71.53
2017-09-03T08:01:02.850Z,72.11
2017-09-03T08:02:02.868Z,71.62
2017-09-03T08:03:02.897Z,70.6
2017-09-03T08:04:02.939Z,70.6
2017-09-03T08:05:17.574Z,70.41
2017-09-03T08:06:02.998Z,70.21
2017-09-03T08:07:03.024Z,70.06
2017-09-03T08:08:03.040Z,69.73
2017-09-03T08:09:03.067Z,68.9
2017-09-03T08:10:03.108Z,68.55
2017-09-03T08:11:03.153Z,69.09
2017-09-03T08:12:03.159Z,68.8
2017-09-03T08:13:03.206Z,69.96
2017-09-03T08:14:03.220Z,70.6
2017-09-03T08:15:03.270Z,71.24
2017-09-03T08:17:03.007Z,69.87
2017-09-03T08:18:03.345Z,69.77
2017-09-03T08:19:03.373Z,69.09
2017-09-03T08:20:18.021Z,68.99
2017-09-03T08:21:03.455Z,68.93
2017-09-03T08:22:03.160Z,68.1
2017-09-03T08:23:03.505Z,68.39
2017-09-03T08:24:03.520Z,68.1
2017-09-03T08:25:03.565Z,68.26
2017-09-03T08:26:03.584Z,68.39
2017-09-03T08:27:03.610Z,67.27
2017-09-03T08:28:03.658Z,68.01
2017-09-03T08:29:03.682Z,68.16
2017-09-03T08:30:03.709Z,69.03
2017-09-03T08:31:03.434Z,70.06
2017-09-03T08:32:03.774Z,70.06
2017-09-03T08:33:03.811Z,69.38
2017-09-03T08:34:03.830Z,68.39
2017-09-03T08:35:03.868Z,67.14
2017-09-03T08:36:03.888Z,68.65
2017-09-03T08:37:03.913Z,69.96
2017-09-03T08:38:03.959Z,69.09
2017-09-03T08:39:03.978Z,69.87
2017-09-03T08:40:04.013Z,69.67
2017-09-03T08:41:04.045Z,68.1
2017-09-03T08:42:04.079Z,67.91
2017-09-03T08:43:04.100Z,68.19
2017-09-03T08:44:04.144Z,66.01
2017-09-03T08:45:04.159Z,66.49
2017-09-03T08:46:04.198Z,66.59
2017-09-03T08:47:04.231Z,66.17
2017-09-03T08:48:04.262Z,65.53
2017-09-03T08:49:04.289Z,65.37
2017-09-03T08:50:04.309Z,64.5
2017-09-03T08:51:04.354Z,63.63
2017-09-03T08:52:18.992Z,63.18
2017-09-03T08:53:04.416Z,62.53
2017-09-03T08:54:04.450Z,62.7
2017-09-03T08:56:04.186Z,63.28
2017-09-03T08:57:04.547Z,64.21
2017-09-03T08:58:04.256Z,65.82
2017-09-03T08:59:04.597Z,67.78
2017-09-03T09:00:04.308Z,67.16
2017-09-03T09:01:04.350Z,68.16
2017-09-03T09:02:04.678Z,68.13
2017-09-03T09:04:04.757Z,69.93
2017-09-03T09:05:04.784Z,69.64
2017-09-03T09:06:04.802Z,69.48
2017-09-03T09:07:04.515Z,68.23
2017-09-03T09:08:19.478Z,69.09
2017-09-03T09:09:04.896Z,68.61
2017-09-03T09:11:04.950Z,68.65
2017-09-03T09:12:04.986Z,68.61
2017-09-03T09:13:05.003Z,68.32
2017-09-03T09:14:05.040Z,68.61
2017-09-03T09:15:05.057Z,68.8
2017-09-03T09:16:05.091Z,69.09
2017-09-03T09:17:05.121Z,69.15
2017-09-03T09:18:05.153Z,69.15
2017-09-03T09:19:05.181Z,69.45
2017-09-03T09:20:05.199Z,69.89
2017-09-03T09:21:05.231Z,69.22
2017-09-03T09:22:05.269Z,68.87
2017-09-03T09:23:05.295Z,68.38
2017-09-03T09:24:19.926Z,69.45
2017-09-03T09:25:05.337Z,68.84
2017-09-03T09:26:05.405Z,69.15
2017-09-03T09:27:05.384Z,67.94
2017-09-03T09:28:05.436Z,68.13
2017-09-03T09:29:05.452Z,68.16
2017-09-03T09:30:05.476Z,67.16
2017-09-03T09:31:05.492Z,67.07
2017-09-03T09:32:05.539Z,67.46
2017-09-03T09:33:05.551Z,68.13
2017-09-03T09:34:05.596Z,69.7
2017-09-03T09:35:05.303Z,70.28
2017-09-03T09:36:05.635Z,69.64
2017-09-03T09:37:05.673Z,69.54
2017-09-03T09:38:05.696Z,69.19
2017-09-03T09:39:05.727Z,69.29
2017-09-03T09:40:20.361Z,69.87
2017-09-03T09:41:05.776Z,69.57
2017-09-03T09:42:05.495Z,68.71
2017-09-03T09:43:05.834Z,68.61
2017-09-03T09:44:05.548Z,69.15
2017-09-03T09:45:05.573Z,69.54
2017-09-03T09:46:05.906Z,69.25
2017-09-03T09:47:05.945Z,70.7
2017-09-03T09:48:05.654Z,70.66
2017-09-03T09:49:05.996Z,69.15
2017-09-03T09:50:05.714Z,69.77
2017-09-03T09:51:06.038Z,68.23
2017-09-03T09:53:06.101Z,68.61
2017-09-03T09:55:20.763Z,67.65
2017-09-03T09:56:06.175Z,67.46
2017-09-03T09:58:06.233Z,67.65
2017-09-03T09:59:06.258Z,68.04
2017-09-03T10:00:06.293Z,66.82
2017-09-03T10:01:06.316Z,67.16
2017-09-03T10:02:06.347Z,67.36
2017-09-03T10:03:06.372Z,66.33
2017-09-03T10:04:06.702Z,64.34
2017-09-03T10:05:06.433Z,63.73
2017-09-03T10:06:06.461Z,62.57
2017-09-03T10:07:06.472Z,63.31
2017-09-03T10:09:06.527Z,64.15
2017-09-03T10:10:06.567Z,64.59
2017-09-03T10:11:06.594Z,64.05
2017-09-03T10:12:06.624Z,65.01
2017-09-03T10:13:06.656Z,64.89
2017-09-03T10:14:06.667Z,66.97
2017-09-03T10:15:06.708Z,65.91
2017-09-03T10:16:06.405Z,65.72
2017-09-03T10:17:06.752Z,65.14
2017-09-03T10:18:06.778Z,63.92
2017-09-03T10:19:06.814Z,63.54
2017-09-03T10:20:06.836Z,64.31
2017-09-03T10:21:06.865Z,65.08
2017-09-03T10:22:06.895Z,63.92
2017-09-03T10:23:06.923Z,65.14
2017-09-03T10:24:06.947Z,66.24
2017-09-03T10:25:06.969Z,67.1
2017-09-03T10:26:06.988Z,68.16
2017-09-03T10:27:21.637Z,67
2017-09-03T10:28:07.050Z,66.17
2017-09-03T10:29:07.089Z,67.42
2017-09-03T10:30:07.109Z,66.2
2017-09-03T10:31:07.144Z,63.79
2017-09-03T10:32:07.158Z,63.82
2017-09-03T10:33:07.181Z,63.54
2017-09-03T10:34:07.222Z,64.66
2017-09-03T10:35:07.245Z,64.73
2017-09-03T10:36:07.268Z,63.98
2017-09-03T10:37:07.291Z,64.66
2017-09-03T10:38:07.374Z,64.02
2017-09-03T10:39:07.347Z,62.66
2017-09-03T10:40:07.059Z,64.59
2017-09-03T10:41:07.402Z,63.67
2017-09-03T10:42:07.121Z,62.7
2017-09-03T10:43:22.069Z,62.51
2017-09-03T10:44:07.478Z,63.28
2017-09-03T10:45:07.502Z,62.89
2017-09-03T10:46:07.540Z,62.02
2017-09-03T10:47:07.563Z,61.35
2017-09-03T10:48:07.604Z,60.86
2017-09-03T10:49:07.625Z,62.12
2017-09-03T10:50:07.651Z,63.31
2017-09-03T10:51:07.674Z,63.79
2017-09-03T10:52:07.700Z,64.79
2017-09-03T10:54:07.758Z,66.91
2017-09-03T10:55:07.782Z,65.3
2017-09-03T10:57:07.837Z,64.73
2017-09-03T10:58:07.856Z,64.73
2017-09-03T10:59:22.553Z,63.64
2017-09-03T11:00:07.914Z,63.85
2017-09-03T11:01:07.946Z,61.93
2017-09-03T11:02:07.967Z,61.68
2017-09-03T11:03:07.986Z,61
2017-09-03T11:04:08.026Z,61.55
2017-09-03T11:05:08.050Z,61.77
2017-09-03T11:06:08.084Z,61.45
2017-09-03T11:07:08.094Z,61.93
2017-09-03T11:08:08.119Z,62.15
2017-09-03T11:10:08.184Z,62.35
2017-09-03T11:11:08.211Z,62.28
2017-09-03T11:12:07.918Z,63.21
2017-09-03T11:13:08.260Z,64.08
2017-09-03T11:14:08.280Z,63.98
2017-09-03T11:15:22.923Z,63.98
2017-09-03T11:16:08.350Z,63.54
2017-09-03T11:17:08.365Z,62.66
2017-09-03T11:18:08.390Z,64.05
2017-09-03T11:19:08.421Z,62.6
2017-09-03T11:20:08.443Z,63.57
2017-09-03T11:21:08.468Z,64.82
2017-09-03T11:22:08.508Z,63.57
2017-09-03T11:23:08.530Z,61.77
2017-09-03T11:25:08.586Z,60.03
2017-09-03T11:26:08.288Z,59.94
2017-09-03T11:27:08.621Z,60.13
2017-09-03T11:28:08.651Z,59.58
2017-09-03T11:29:08.686Z,59.23
2017-09-03T11:30:23.325Z,59.93
2017-09-03T11:31:08.734Z,60.58
2017-09-03T11:32:08.769Z,60.1
2017-09-03T11:33:08.776Z,58.75
2017-09-03T11:34:08.804Z,58.07
2017-09-03T11:35:08.833Z,58.36
2017-09-03T11:36:08.870Z,59.32
2017-09-03T11:37:08.889Z,59.42
2017-09-03T11:38:08.906Z,59.8
2017-09-03T11:39:08.950Z,59.87
2017-09-03T11:40:08.660Z,59.78
2017-09-03T11:41:08.674Z,60.52
2017-09-03T11:42:09.034Z,60.8
2017-09-03T11:43:08.740Z,61.58
2017-09-03T11:44:09.076Z,62.9
2017-09-03T11:45:09.100Z,64.59
2017-09-03T11:46:08.820Z,64.31
2017-09-03T11:47:08.846Z,63.15
2017-09-03T11:48:08.865Z,63.41
2017-09-03T11:49:09.212Z,63.51
2017-09-03T11:50:09.220Z,63.06
2017-09-03T11:51:08.950Z,62.77
2017-09-03T11:52:08.969Z,62.67
2017-09-03T11:53:08.998Z,61.9
2017-09-03T11:54:09.018Z,60.65
2017-09-03T11:55:09.363Z,62
2017-09-03T11:56:09.076Z,61.71
2017-09-03T11:57:09.414Z,60.46
2017-09-03T11:58:09.430Z,60.07
2017-09-03T11:59:09.470Z,59.3
2017-09-03T12:00:09.491Z,59.2
2017-09-03T12:02:24.154Z,58.24
2017-09-03T12:03:09.259Z,58.56
2017-09-03T12:04:09.598Z,59.3
2017-09-03T12:05:09.306Z,59.11
2017-09-03T12:06:09.636Z,58.17
2017-09-03T12:07:09.666Z,57.37
2017-09-03T12:08:09.385Z,57.86
2017-09-03T12:09:09.735Z,58.34
2017-09-03T12:10:09.745Z,58.82
2017-09-03T12:11:09.457Z,59.69
2017-09-03T12:12:09.808Z,58.72
2017-09-03T12:13:09.519Z,58.75
2017-09-03T12:14:09.863Z,57.02
2017-09-03T12:15:09.568Z,56.73
2017-09-03T12:16:09.904Z,56.73
2017-09-03T12:17:09.922Z,56.54
2017-09-03T12:18:24.571Z,57.05
2017-09-03T12:19:09.967Z,56.18
2017-09-03T12:20:09.700Z,56.37
2017-09-03T12:21:10.027Z,55.99
2017-09-03T12:22:10.060Z,56.09
2017-09-03T12:23:10.076Z,55.44
2017-09-03T12:24:10.110Z,54.96
2017-09-03T12:25:10.138Z,54.69
2017-09-03T12:26:10.160Z,54.21
2017-09-03T12:27:10.187Z,55.08
2017-09-03T12:28:10.222Z,54.98
2017-09-03T12:29:09.924Z,55.54
2017-09-03T12:30:10.252Z,55.63
2017-09-03T12:31:09.971Z,54.57
2017-09-03T12:32:10.321Z,53.8
2017-09-03T12:33:10.374Z,54.96
2017-09-03T12:34:24.978Z,55.24
2017-09-03T12:35:10.384Z,55.15
2017-09-03T12:36:10.410Z,55.82
2017-09-03T12:37:10.458Z,55.99
2017-09-03T12:39:10.489Z,55.31
2017-09-03T12:40:10.518Z,57.14
2017-09-03T12:42:10.578Z,56.76
2017-09-03T12:44:10.312Z,57.43
2017-09-03T12:45:10.663Z,57.62
2017-09-03T12:46:10.666Z,57.53
2017-09-03T12:47:10.698Z,57.82
2017-09-03T12:49:10.779Z,58.4
2017-09-03T12:50:25.393Z,57.72
2017-09-03T12:51:10.802Z,57.98
2017-09-03T12:52:10.834Z,58.47
2017-09-03T12:53:10.858Z,58.08
2017-09-03T12:54:10.570Z,58.37
2017-09-03T12:55:10.920Z,58.56
2017-09-03T12:56:10.934Z,58.95
2017-09-03T12:57:10.950Z,58.65
2017-09-03T12:58:10.995Z,59.14
2017-09-03T12:59:11.013Z,59.14
2017-09-03T13:00:11.034Z,59.04
2017-09-03T13:01:11.071Z,59.27
2017-09-03T13:02:11.079Z,59.17
2017-09-03T13:03:11.112Z,58.2
2017-09-03T13:04:11.141Z,58.01
2017-09-03T13:05:25.776Z,57.92
2017-09-03T13:06:11.178Z,58.2
2017-09-03T13:07:11.227Z,59.07
2017-09-03T13:08:10.919Z,59.33
2017-09-03T13:09:11.276Z,58.17
2017-09-03T13:10:11.318Z,55.19
2017-09-03T13:11:11.345Z,54.39
2017-09-03T13:12:11.346Z,53.69
2017-09-03T13:13:11.369Z,52.34
2017-09-03T13:14:11.396Z,53.02
2017-09-03T13:15:11.436Z,52.06
2017-09-03T13:16:11.452Z,52.34
2017-09-03T13:17:11.473Z,53.02
2017-09-03T13:18:11.496Z,54.08
2017-09-03T13:19:11.207Z,51.21
2017-09-03T13:20:11.550Z,52.73
2017-09-03T13:21:11.572Z,53.78
2017-09-03T13:22:11.610Z,55.23
2017-09-03T13:23:11.633Z,57.28
2017-09-03T13:25:11.676Z,56.99
2017-09-03T13:26:11.698Z,58.34
2017-09-03T13:27:11.774Z,58.75
2017-09-03T13:28:11.752Z,58.95
2017-09-03T13:29:11.790Z,59.4
2017-09-03T13:30:11.797Z,59.43
2017-09-03T13:31:11.834Z,60.49
2017-09-03T13:32:11.850Z,59.33
2017-09-03T13:33:11.881Z,59.43
2017-09-03T13:34:11.903Z,60.36
2017-09-03T13:35:11.942Z,59.97
2017-09-03T13:36:11.951Z,60.1
2017-09-03T13:37:26.597Z,59.14
2017-09-03T13:38:12.011Z,59.33
2017-09-03T13:39:12.041Z,59.52
2017-09-03T13:40:12.060Z,59.72